JST602 YMAV-YSSY
Flight info
| Callsign | JST602 |
|---|---|
| Flight time | 1h 25m |
| Altitude | 37000 |
| Route | AV W190 ML H129 DOSEL Y59 RIVET |
| Aircraft | A321/M-SDE3FGHIRWY/LB1 |
Departure
| Time | 2026-04-18 06:00 |
|---|---|
| Airport | Melbourne Avalon International Airport (YMAV) |
Arrival
| Time | 2026-04-18 07:25 |
|---|---|
| Airport | Sydney Kingsford Smith International Airport (YSSY) |
| Time | Latitude | Longitude | Altitude | Speed | Heading |
|---|---|---|---|---|---|
| 2026-04-18 05:35 | -38.02721 | 144.47264 | 27 ft | 0 kts | 7° |
| 2026-04-18 05:53 | -38.02725 | 144.47263 | 27 ft | 3 kts | 7° |
| 2026-04-18 05:54 | -38.02751 | 144.47259 | 27 ft | 4 kts | 7° |
| 2026-04-18 05:54 | -38.02776 | 144.47255 | 27 ft | 4 kts | 0° |
| 2026-04-18 05:54 | -38.02796 | 144.47261 | 27 ft | 4 kts | 288° |
| 2026-04-18 05:54 | -38.02796 | 144.47293 | 27 ft | 4 kts | 269° |
| 2026-04-18 05:55 | -38.02796 | 144.47306 | 27 ft | 0 kts | 277° |
| 2026-04-18 05:57 | -38.02795 | 144.47291 | 27 ft | 5 kts | 277° |
| 2026-04-18 05:58 | -38.02785 | 144.47205 | 26 ft | 13 kts | 278° |
| 2026-04-18 05:58 | -38.02747 | 144.47091 | 30 ft | 15 kts | 289° |
| 2026-04-18 05:58 | -38.02744 | 144.46961 | 27 ft | 15 kts | 234° |
| 2026-04-18 05:58 | -38.02841 | 144.46922 | 25 ft | 0 kts | 187° |
| 2026-04-18 05:59 | -38.02846 | 144.46921 | 24 ft | 4 kts | 187° |
| 2026-04-18 05:59 | -38.03000 | 144.46898 | 26 ft | 56 kts | 186° |
| 2026-04-18 05:59 | -38.03629 | 144.46790 | 29 ft | 124 kts | 187° |
| 2026-04-18 06:00 | -38.04664 | 144.46621 | 67 ft | 169 kts | 186° |
| 2026-04-18 06:00 | -38.05827 | 144.46443 | 655 ft | 170 kts | 186° |
| 2026-04-18 06:00 | -38.06994 | 144.46244 | 1335 ft | 167 kts | 186° |
| 2026-04-18 06:00 | -38.08154 | 144.46133 | 1894 ft | 172 kts | 169° |
| 2026-04-18 06:01 | -38.09192 | 144.46976 | 2136 ft | 194 kts | 126° |
| 2026-04-18 06:01 | -38.09560 | 144.48724 | 2349 ft | 224 kts | 86° |
| 2026-04-18 06:01 | -38.08850 | 144.50604 | 2654 ft | 254 kts | 48° |
| 2026-04-18 06:01 | -38.07455 | 144.52063 | 3326 ft | 265 kts | 33° |
| 2026-04-18 06:02 | -38.05855 | 144.53285 | 4138 ft | 270 kts | 29° |
| 2026-04-18 06:02 | -38.04191 | 144.54444 | 4950 ft | 275 kts | 30° |
| 2026-04-18 06:02 | -38.02504 | 144.55625 | 5726 ft | 279 kts | 30° |
| 2026-04-18 06:02 | -38.00794 | 144.56863 | 6462 ft | 285 kts | 30° |
| 2026-04-18 06:03 | -37.99082 | 144.58150 | 7209 ft | 289 kts | 31° |
| 2026-04-18 06:03 | -37.97356 | 144.59484 | 7927 ft | 293 kts | 31° |
| 2026-04-18 06:03 | -37.95608 | 144.60859 | 8663 ft | 297 kts | 31° |
| 2026-04-18 06:03 | -37.93842 | 144.62260 | 9413 ft | 301 kts | 31° |
| 2026-04-18 06:04 | -37.92055 | 144.63681 | 10138 ft | 306 kts | 31° |
| 2026-04-18 06:04 | -37.90193 | 144.65157 | 10396 ft | 327 kts | 31° |
| 2026-04-18 06:04 | -37.88191 | 144.66739 | 10610 ft | 349 kts | 31° |
| 2026-04-18 06:04 | -37.86105 | 144.68388 | 11121 ft | 358 kts | 31° |
| 2026-04-18 06:05 | -37.83980 | 144.70068 | 11734 ft | 363 kts | 31° |
| 2026-04-18 06:05 | -37.81826 | 144.71770 | 12394 ft | 367 kts | 31° |
| 2026-04-18 06:05 | -37.79643 | 144.73487 | 13041 ft | 372 kts | 31° |
| 2026-04-18 06:05 | -37.77462 | 144.75200 | 13674 ft | 376 kts | 31° |
| 2026-04-18 06:06 | -37.75225 | 144.76957 | 14267 ft | 382 kts | 31° |
| 2026-04-18 06:06 | -37.72953 | 144.78742 | 14838 ft | 386 kts | 31° |
| 2026-04-18 06:06 | -37.70662 | 144.80541 | 15443 ft | 389 kts | 31° |
| 2026-04-18 06:06 | -37.68358 | 144.82346 | 16062 ft | 392 kts | 31° |
| 2026-04-18 06:07 | -37.66053 | 144.84232 | 16658 ft | 396 kts | 37° |
| 2026-04-18 06:07 | -37.63950 | 144.86502 | 17256 ft | 399 kts | 42° |
| 2026-04-18 06:07 | -37.61875 | 144.88855 | 17868 ft | 403 kts | 42° |
| 2026-04-18 06:07 | -37.59780 | 144.91226 | 18469 ft | 406 kts | 42° |
| 2026-04-18 06:08 | -37.57694 | 144.93579 | 18987 ft | 409 kts | 42° |
| 2026-04-18 06:08 | -37.55563 | 144.95973 | 19545 ft | 412 kts | 42° |
| 2026-04-18 06:08 | -37.53419 | 144.98380 | 20089 ft | 414 kts | 42° |
| 2026-04-18 06:08 | -37.51263 | 145.00797 | 20655 ft | 416 kts | 42° |
| 2026-04-18 06:09 | -37.49089 | 145.03232 | 21182 ft | 420 kts | 42° |
| 2026-04-18 06:09 | -37.46904 | 145.05679 | 21722 ft | 422 kts | 42° |
| 2026-04-18 06:09 | -37.44697 | 145.08147 | 22273 ft | 425 kts | 42° |
| 2026-04-18 06:09 | -37.42479 | 145.10625 | 22813 ft | 428 kts | 42° |
| 2026-04-18 06:10 | -37.40249 | 145.13117 | 23344 ft | 430 kts | 43° |
| 2026-04-18 06:10 | -37.38006 | 145.15621 | 23860 ft | 433 kts | 42° |
| 2026-04-18 06:10 | -37.35749 | 145.18139 | 24259 ft | 435 kts | 42° |
| 2026-04-18 06:10 | -37.33478 | 145.20674 | 24663 ft | 438 kts | 42° |
| 2026-04-18 06:11 | -37.31192 | 145.23225 | 25073 ft | 440 kts | 42° |
| 2026-04-18 06:11 | -37.28929 | 145.25745 | 25469 ft | 442 kts | 42° |
| 2026-04-18 06:11 | -37.26582 | 145.28352 | 25873 ft | 445 kts | 42° |
| 2026-04-18 06:11 | -37.24254 | 145.30937 | 26231 ft | 448 kts | 42° |
| 2026-04-18 06:12 | -37.21912 | 145.33538 | 26629 ft | 451 kts | 42° |
| 2026-04-18 06:12 | -37.19566 | 145.36141 | 26998 ft | 453 kts | 42° |
| 2026-04-18 06:12 | -37.17221 | 145.38821 | 27362 ft | 455 kts | 46° |
| 2026-04-18 06:12 | -37.15168 | 145.41841 | 27728 ft | 456 kts | 55° |
| 2026-04-18 06:13 | -37.13316 | 145.45085 | 28103 ft | 459 kts | 56° |
| 2026-04-18 06:13 | -37.11458 | 145.48342 | 28472 ft | 461 kts | 55° |
| 2026-04-18 06:13 | -37.09617 | 145.51563 | 28835 ft | 463 kts | 55° |
| 2026-04-18 06:13 | -37.07707 | 145.54896 | 29189 ft | 466 kts | 55° |
| 2026-04-18 06:14 | -37.05804 | 145.58208 | 29531 ft | 469 kts | 55° |
| 2026-04-18 06:14 | -37.03898 | 145.61516 | 29868 ft | 471 kts | 55° |
| 2026-04-18 06:14 | -37.01965 | 145.64864 | 30206 ft | 473 kts | 55° |
| 2026-04-18 06:14 | -37.00060 | 145.68161 | 30481 ft | 475 kts | 55° |
| 2026-04-18 06:15 | -36.98092 | 145.71565 | 30751 ft | 478 kts | 55° |
| 2026-04-18 06:15 | -36.96139 | 145.74943 | 31035 ft | 480 kts | 55° |
| 2026-04-18 06:15 | -36.94180 | 145.78331 | 31313 ft | 483 kts | 54° |
| 2026-04-18 06:15 | -36.92212 | 145.81732 | 31612 ft | 485 kts | 55° |
| 2026-04-18 06:16 | -36.90230 | 145.85155 | 32003 ft | 484 kts | 54° |
| 2026-04-18 06:16 | -36.88262 | 145.88549 | 32384 ft | 484 kts | 54° |
| 2026-04-18 06:16 | -36.86283 | 145.91955 | 32761 ft | 484 kts | 54° |
| 2026-04-18 06:16 | -36.84303 | 145.95357 | 33120 ft | 484 kts | 54° |
| 2026-04-18 06:17 | -36.82323 | 145.98751 | 33485 ft | 484 kts | 54° |
| 2026-04-18 06:17 | -36.80374 | 146.02090 | 33835 ft | 484 kts | 54° |
| 2026-04-18 06:17 | -36.78398 | 146.05481 | 34207 ft | 484 kts | 54° |
| 2026-04-18 06:17 | -36.76411 | 146.08891 | 34494 ft | 484 kts | 54° |
| 2026-04-18 06:18 | -36.74428 | 146.12285 | 34735 ft | 485 kts | 54° |
| 2026-04-18 06:18 | -36.72449 | 146.15665 | 34987 ft | 486 kts | 54° |
| 2026-04-18 06:18 | -36.70437 | 146.19099 | 35247 ft | 487 kts | 54° |
| 2026-04-18 06:18 | -36.68435 | 146.22515 | 35498 ft | 488 kts | 53° |
| 2026-04-18 06:19 | -36.66428 | 146.25935 | 35752 ft | 489 kts | 54° |
| 2026-04-18 06:19 | -36.64420 | 146.29357 | 36009 ft | 490 kts | 53° |
| 2026-04-18 06:19 | -36.62405 | 146.32787 | 36258 ft | 491 kts | 53° |
| 2026-04-18 06:19 | -36.60412 | 146.36176 | 36475 ft | 492 kts | 53° |
| 2026-04-18 06:20 | -36.58370 | 146.39647 | 36703 ft | 493 kts | 53° |
| 2026-04-18 06:20 | -36.56332 | 146.43102 | 36928 ft | 494 kts | 53° |
| 2026-04-18 06:20 | -36.54298 | 146.46545 | 37119 ft | 495 kts | 53° |
| 2026-04-18 06:21 | -36.50212 | 146.53449 | 37160 ft | 496 kts | 53° |
| 2026-04-18 06:21 | -36.46122 | 146.60355 | 37163 ft | 496 kts | 53° |
| 2026-04-18 06:22 | -36.42030 | 146.67251 | 37166 ft | 496 kts | 53° |
| 2026-04-18 06:22 | -36.38627 | 146.72965 | 37166 ft | 496 kts | 53° |
| 2026-04-18 06:23 | -36.33851 | 146.80965 | 37161 ft | 496 kts | 53° |
| 2026-04-18 06:23 | -36.29747 | 146.87854 | 37153 ft | 497 kts | 53° |
| 2026-04-18 06:24 | -36.25634 | 146.94741 | 37172 ft | 497 kts | 53° |
| 2026-04-18 06:24 | -36.21512 | 147.01618 | 37156 ft | 498 kts | 52° |
| 2026-04-18 06:25 | -36.18044 | 147.07379 | 37161 ft | 498 kts | 52° |
| 2026-04-18 06:25 | -36.13911 | 147.14242 | 37153 ft | 498 kts | 52° |
| 2026-04-18 06:26 | -36.09767 | 147.21112 | 37155 ft | 498 kts | 52° |
| 2026-04-18 06:26 | -36.05681 | 147.27897 | 37163 ft | 498 kts | 52° |
| 2026-04-18 06:27 | -36.01511 | 147.34794 | 37159 ft | 498 kts | 52° |
| 2026-04-18 06:27 | -35.97349 | 147.41631 | 37150 ft | 498 kts | 52° |
| 2026-04-18 06:28 | -35.93186 | 147.48464 | 37157 ft | 498 kts | 52° |
| 2026-04-18 06:28 | -35.89026 | 147.55298 | 37141 ft | 498 kts | 52° |
| 2026-04-18 06:29 | -35.84861 | 147.62125 | 37159 ft | 498 kts | 52° |
| 2026-04-18 06:29 | -35.80686 | 147.68953 | 37147 ft | 499 kts | 52° |
| 2026-04-18 06:30 | -35.76503 | 147.75788 | 37147 ft | 500 kts | 52° |
| 2026-04-18 06:30 | -35.72283 | 147.82660 | 37152 ft | 500 kts | 52° |
| 2026-04-18 06:31 | -35.68111 | 147.89443 | 37148 ft | 500 kts | 52° |
| 2026-04-18 06:31 | -35.63915 | 147.96248 | 37144 ft | 500 kts | 52° |
| 2026-04-18 06:32 | -35.59714 | 148.03035 | 37146 ft | 501 kts | 52° |
| 2026-04-18 06:32 | -35.55480 | 148.09878 | 37135 ft | 501 kts | 52° |
| 2026-04-18 06:33 | -35.51262 | 148.16687 | 37125 ft | 501 kts | 51° |
| 2026-04-18 06:33 | -35.47033 | 148.23493 | 37126 ft | 502 kts | 51° |
| 2026-04-18 06:34 | -35.42801 | 148.30284 | 37137 ft | 502 kts | 51° |
| 2026-04-18 06:34 | -35.38551 | 148.37100 | 37132 ft | 502 kts | 51° |
| 2026-04-18 06:35 | -35.34322 | 148.43864 | 37141 ft | 502 kts | 51° |
| 2026-04-18 06:35 | -35.30074 | 148.50638 | 37122 ft | 503 kts | 51° |
| 2026-04-18 06:36 | -35.25810 | 148.57438 | 37134 ft | 503 kts | 51° |
| 2026-04-18 06:36 | -35.21550 | 148.64231 | 37112 ft | 503 kts | 51° |
| 2026-04-18 06:37 | -35.17283 | 148.71019 | 37122 ft | 503 kts | 51° |
| 2026-04-18 06:37 | -35.13007 | 148.77790 | 37132 ft | 504 kts | 51° |
| 2026-04-18 06:38 | -35.08715 | 148.84561 | 37130 ft | 504 kts | 51° |
| 2026-04-18 06:38 | -35.04434 | 148.91319 | 37138 ft | 503 kts | 51° |
| 2026-04-18 06:39 | -35.00151 | 148.98078 | 36936 ft | 501 kts | 51° |
| 2026-04-18 06:39 | -34.98015 | 149.01440 | 36387 ft | 500 kts | 51° |
| 2026-04-18 06:39 | -34.95903 | 149.04762 | 35948 ft | 497 kts | 51° |
| 2026-04-18 06:39 | -34.93815 | 149.08045 | 35576 ft | 493 kts | 51° |
| 2026-04-18 06:40 | -34.91714 | 149.11342 | 35186 ft | 488 kts | 51° |
| 2026-04-18 06:40 | -34.89626 | 149.14613 | 34813 ft | 483 kts | 51° |
| 2026-04-18 06:40 | -34.87558 | 149.17842 | 34446 ft | 478 kts | 51° |
| 2026-04-18 06:40 | -34.85552 | 149.20971 | 34080 ft | 474 kts | 51° |
| 2026-04-18 06:41 | -34.83553 | 149.24093 | 33637 ft | 470 kts | 51° |
| 2026-04-18 06:41 | -34.81544 | 149.27233 | 33184 ft | 466 kts | 51° |
| 2026-04-18 06:41 | -34.79565 | 149.30325 | 32708 ft | 462 kts | 51° |
| 2026-04-18 06:41 | -34.77596 | 149.33401 | 32245 ft | 459 kts | 52° |
| 2026-04-18 06:42 | -34.75663 | 149.36417 | 31784 ft | 455 kts | 52° |
| 2026-04-18 06:42 | -34.73787 | 149.39552 | 31012 ft | 459 kts | 59° |
| 2026-04-18 06:42 | -34.72226 | 149.42983 | 29828 ft | 460 kts | 63° |
| 2026-04-18 06:42 | -34.70753 | 149.46376 | 28554 ft | 457 kts | 63° |
| 2026-04-18 06:43 | -34.69278 | 149.49778 | 27868 ft | 440 kts | 63° |
| 2026-04-18 06:43 | -34.67886 | 149.52987 | 27631 ft | 415 kts | 64° |
| 2026-04-18 06:43 | -34.66553 | 149.56054 | 26806 ft | 409 kts | 64° |
| 2026-04-18 06:43 | -34.65226 | 149.59103 | 26129 ft | 404 kts | 64° |
| 2026-04-18 06:44 | -34.63939 | 149.62051 | 26047 ft | 389 kts | 64° |
| 2026-04-18 06:44 | -34.62678 | 149.64928 | 25966 ft | 387 kts | 64° |
| 2026-04-18 06:44 | -34.61411 | 149.67822 | 25812 ft | 389 kts | 64° |
| 2026-04-18 06:44 | -34.60168 | 149.70662 | 25458 ft | 387 kts | 64° |
| 2026-04-18 06:45 | -34.58879 | 149.73598 | 25083 ft | 385 kts | 64° |
| 2026-04-18 06:45 | -34.57624 | 149.76452 | 24706 ft | 383 kts | 64° |
| 2026-04-18 06:45 | -34.56369 | 149.79298 | 24331 ft | 381 kts | 64° |
| 2026-04-18 06:45 | -34.55144 | 149.82074 | 23962 ft | 379 kts | 64° |
| 2026-04-18 06:46 | -34.53894 | 149.84907 | 23544 ft | 378 kts | 64° |
| 2026-04-18 06:46 | -34.52646 | 149.87739 | 23136 ft | 375 kts | 64° |
| 2026-04-18 06:46 | -34.51417 | 149.90526 | 22749 ft | 373 kts | 64° |
| 2026-04-18 06:46 | -34.50217 | 149.93244 | 22363 ft | 370 kts | 64° |
| 2026-04-18 06:47 | -34.48985 | 149.96038 | 21974 ft | 369 kts | 64° |
| 2026-04-18 06:47 | -34.47779 | 149.98769 | 21578 ft | 367 kts | 64° |
| 2026-04-18 06:47 | -34.46578 | 150.01487 | 21192 ft | 365 kts | 64° |
| 2026-04-18 06:47 | -34.45383 | 150.04188 | 20804 ft | 363 kts | 65° |
| 2026-04-18 06:48 | -34.44190 | 150.06881 | 20412 ft | 362 kts | 65° |
| 2026-04-18 06:48 | -34.43006 | 150.09554 | 20035 ft | 360 kts | 65° |
| 2026-04-18 06:48 | -34.41820 | 150.12229 | 19648 ft | 359 kts | 64° |
| 2026-04-18 06:48 | -34.40636 | 150.14890 | 19264 ft | 359 kts | 65° |
| 2026-04-18 06:49 | -34.39468 | 150.17511 | 18899 ft | 358 kts | 65° |
| 2026-04-18 06:49 | -34.38270 | 150.20198 | 18498 ft | 358 kts | 65° |
| 2026-04-18 06:49 | -34.37089 | 150.22846 | 18060 ft | 357 kts | 65° |
| 2026-04-18 06:49 | -34.35912 | 150.25488 | 17684 ft | 355 kts | 65° |
| 2026-04-18 06:50 | -34.34745 | 150.28106 | 17302 ft | 353 kts | 65° |
| 2026-04-18 06:50 | -34.33597 | 150.30677 | 16934 ft | 351 kts | 65° |
| 2026-04-18 06:50 | -34.32419 | 150.33318 | 16535 ft | 354 kts | 64° |
| 2026-04-18 06:50 | -34.31254 | 150.35923 | 16150 ft | 351 kts | 64° |
| 2026-04-18 06:51 | -34.30106 | 150.38479 | 15777 ft | 351 kts | 65° |
| 2026-04-18 06:51 | -34.28946 | 150.41059 | 15408 ft | 348 kts | 65° |
| 2026-04-18 06:51 | -34.27794 | 150.43630 | 15026 ft | 347 kts | 64° |
| 2026-04-18 06:51 | -34.26650 | 150.46193 | 14668 ft | 345 kts | 65° |
| 2026-04-18 06:52 | -34.25518 | 150.48743 | 14280 ft | 345 kts | 65° |
| 2026-04-18 06:52 | -34.24385 | 150.51299 | 13898 ft | 344 kts | 65° |
| 2026-04-18 06:52 | -34.23260 | 150.53828 | 13494 ft | 342 kts | 65° |
| 2026-04-18 06:52 | -34.22127 | 150.56366 | 13118 ft | 340 kts | 65° |
| 2026-04-18 06:53 | -34.21007 | 150.58861 | 12751 ft | 337 kts | 64° |
| 2026-04-18 06:53 | -34.19892 | 150.61337 | 12387 ft | 334 kts | 65° |
| 2026-04-18 06:53 | -34.18786 | 150.63794 | 12028 ft | 332 kts | 65° |
| 2026-04-18 06:53 | -34.17686 | 150.66237 | 11662 ft | 331 kts | 65° |
| 2026-04-18 06:54 | -34.16587 | 150.68673 | 11293 ft | 330 kts | 65° |
| 2026-04-18 06:54 | -34.15496 | 150.71092 | 10932 ft | 327 kts | 64° |
| 2026-04-18 06:54 | -34.14409 | 150.73499 | 10568 ft | 326 kts | 65° |
| 2026-04-18 06:54 | -34.13330 | 150.75881 | 10209 ft | 324 kts | 64° |
| 2026-04-18 06:55 | -34.12246 | 150.78281 | 9803 ft | 324 kts | 64° |
| 2026-04-18 06:55 | -34.11177 | 150.80655 | 9361 ft | 315 kts | 64° |
| 2026-04-18 06:55 | -34.10131 | 150.82978 | 8971 ft | 315 kts | 64° |
| 2026-04-18 06:55 | -34.09091 | 150.85289 | 8668 ft | 312 kts | 64° |
| 2026-04-18 06:56 | -34.08074 | 150.87545 | 8374 ft | 310 kts | 64° |
| 2026-04-18 06:56 | -34.07032 | 150.89850 | 8057 ft | 307 kts | 64° |
| 2026-04-18 06:56 | -34.06023 | 150.92086 | 7766 ft | 305 kts | 64° |
| 2026-04-18 06:56 | -34.05009 | 150.94340 | 7471 ft | 303 kts | 64° |
| 2026-04-18 06:57 | -34.04005 | 150.96565 | 7169 ft | 301 kts | 64° |
| 2026-04-18 06:57 | -34.01923 | 151.00932 | 6588 ft | 299 kts | 56° |
| 2026-04-18 06:57 | -34.00673 | 151.02889 | 6293 ft | 297 kts | 53° |
| 2026-04-18 06:58 | -33.99378 | 151.04858 | 6046 ft | 294 kts | 53° |
| 2026-04-18 06:58 | -33.98102 | 151.06792 | 6004 ft | 297 kts | 53° |
| 2026-04-18 06:58 | -33.96809 | 151.08754 | 6012 ft | 299 kts | 53° |
| 2026-04-18 06:58 | -33.95521 | 151.10704 | 6011 ft | 299 kts | 53° |
| 2026-04-18 06:59 | -33.94224 | 151.12672 | 6011 ft | 298 kts | 53° |
| 2026-04-18 06:59 | -33.92952 | 151.14599 | 6005 ft | 298 kts | 53° |
| 2026-04-18 06:59 | -33.91637 | 151.16585 | 6016 ft | 298 kts | 53° |
| 2026-04-18 06:59 | -33.90366 | 151.18508 | 6005 ft | 299 kts | 53° |
| 2026-04-18 07:00 | -33.89054 | 151.20493 | 6002 ft | 299 kts | 53° |
| 2026-04-18 07:00 | -33.87762 | 151.22437 | 6002 ft | 293 kts | 53° |
| 2026-04-18 07:00 | -33.86536 | 151.24271 | 6005 ft | 278 kts | 53° |
| 2026-04-18 07:00 | -33.85353 | 151.26034 | 5979 ft | 264 kts | 53° |
| 2026-04-18 07:01 | -33.84199 | 151.27746 | 5657 ft | 263 kts | 53° |
| 2026-04-18 07:01 | -33.83061 | 151.29461 | 5358 ft | 260 kts | 52° |
| 2026-04-18 07:01 | -33.81946 | 151.31161 | 5056 ft | 258 kts | 53° |
| 2026-04-18 07:01 | -33.81052 | 151.32992 | 4724 ft | 253 kts | 75° |
| 2026-04-18 07:02 | -33.80629 | 151.35041 | 4378 ft | 251 kts | 82° |
| 2026-04-18 07:02 | -33.80265 | 151.37087 | 4042 ft | 249 kts | 83° |
| 2026-04-18 07:02 | -33.79903 | 151.39108 | 3781 ft | 246 kts | 83° |
| 2026-04-18 07:02 | -33.79533 | 151.41104 | 3501 ft | 243 kts | 83° |
| 2026-04-18 07:03 | -33.79174 | 151.43085 | 3214 ft | 240 kts | 88° |
| 2026-04-18 07:03 | -33.79350 | 151.44972 | 3026 ft | 220 kts | 122° |
| 2026-04-18 07:03 | -33.80305 | 151.46332 | 3014 ft | 213 kts | 148° |
| 2026-04-18 07:03 | -33.81529 | 151.47329 | 3011 ft | 212 kts | 152° |
| 2026-04-18 07:04 | -33.82812 | 151.48161 | 2996 ft | 207 kts | 168° |
| 2026-04-18 07:04 | -33.84192 | 151.48102 | 2999 ft | 196 kts | 202° |
| 2026-04-18 07:04 | -33.85222 | 151.47047 | 3007 ft | 201 kts | 234° |
| 2026-04-18 07:04 | -33.85852 | 151.45528 | 3005 ft | 204 kts | 239° |
| 2026-04-18 07:05 | -33.86492 | 151.44035 | 3014 ft | 193 kts | 236° |
| 2026-04-18 07:05 | -33.87116 | 151.42670 | 3008 ft | 182 kts | 235° |
| 2026-04-18 07:05 | -33.87725 | 151.41360 | 3006 ft | 178 kts | 235° |
| 2026-04-18 07:05 | -33.88333 | 151.40060 | 3010 ft | 178 kts | 235° |
| 2026-04-18 07:06 | -33.88915 | 151.38752 | 3009 ft | 178 kts | 240° |
| 2026-04-18 07:06 | -33.89355 | 151.37345 | 3026 ft | 180 kts | 244° |
| 2026-04-18 07:06 | -33.89726 | 151.35918 | 2875 ft | 175 kts | 246° |
| 2026-04-18 07:06 | -33.90058 | 151.34553 | 2670 ft | 164 kts | 247° |
| 2026-04-18 07:07 | -33.90367 | 151.33266 | 2455 ft | 157 kts | 247° |
| 2026-04-18 07:07 | -33.90660 | 151.32038 | 2285 ft | 150 kts | 247° |
| 2026-04-18 07:07 | -33.90943 | 151.30852 | 2073 ft | 146 kts | 246° |
| 2026-04-18 07:07 | -33.91228 | 151.29659 | 1874 ft | 148 kts | 248° |
| 2026-04-18 07:08 | -33.91510 | 151.28468 | 1675 ft | 148 kts | 247° |
| 2026-04-18 07:08 | -33.91788 | 151.27296 | 1468 ft | 144 kts | 245° |
| 2026-04-18 07:08 | -33.92057 | 151.26160 | 1282 ft | 143 kts | 245° |
| 2026-04-18 07:08 | -33.92338 | 151.24978 | 1081 ft | 146 kts | 248° |
| 2026-04-18 07:09 | -33.92614 | 151.23810 | 902 ft | 145 kts | 246° |
| 2026-04-18 07:09 | -33.92890 | 151.22645 | 689 ft | 147 kts | 244° |
| 2026-04-18 07:09 | -33.93178 | 151.21446 | 511 ft | 148 kts | 246° |
| 2026-04-18 07:09 | -33.93366 | 151.20664 | 388 ft | 146 kts | 249° |
| 2026-04-18 07:10 | -33.93727 | 151.19111 | 135 ft | 149 kts | 246° |
| 2026-04-18 07:10 | -33.94001 | 151.17941 | 34 ft | 148 kts | 245° |
| 2026-04-18 07:10 | -33.94221 | 151.17177 | 23 ft | 131 kts | 249° |
| 2026-04-18 07:10 | -33.94539 | 151.16174 | 492 ft | 130 kts | 240° |
| 2026-04-18 07:11 | -33.94858 | 151.15122 | 1333 ft | 137 kts | 241° |
| 2026-04-18 07:11 | -33.95169 | 151.14057 | 2134 ft | 146 kts | 243° |
| 2026-04-18 07:11 | -33.95490 | 151.12925 | 2758 ft | 149 kts | 244° |
| 2026-04-18 07:11 | -33.95803 | 151.11692 | 2968 ft | 175 kts | 249° |
| 2026-04-18 07:12 | -33.96111 | 151.10175 | 3017 ft | 204 kts | 250° |
| 2026-04-18 07:12 | -33.96451 | 151.08468 | 2979 ft | 213 kts | 251° |
| 2026-04-18 07:12 | -33.96426 | 151.06652 | 2998 ft | 227 kts | 282° |
| 2026-04-18 07:12 | -33.95534 | 151.05041 | 3012 ft | 240 kts | 315° |
| 2026-04-18 07:13 | -33.94022 | 151.04182 | 3022 ft | 244 kts | 350° |
| 2026-04-18 07:13 | -33.92355 | 151.03871 | 3011 ft | 239 kts | 352° |
| 2026-04-18 07:13 | -33.90712 | 151.03630 | 3012 ft | 237 kts | 353° |
| 2026-04-18 07:13 | -33.89067 | 151.03399 | 3015 ft | 239 kts | 353° |
| 2026-04-18 07:14 | -33.87403 | 151.03163 | 3014 ft | 239 kts | 353° |
| 2026-04-18 07:14 | -33.85758 | 151.02933 | 3010 ft | 240 kts | 352° |
| 2026-04-18 07:14 | -33.84106 | 151.02701 | 3009 ft | 236 kts | 353° |
| 2026-04-18 07:14 | -33.82485 | 151.02739 | 3005 ft | 234 kts | 17° |
| 2026-04-18 07:15 | -33.81121 | 151.03741 | 3013 ft | 230 kts | 50° |
| 2026-04-18 07:15 | -33.80389 | 151.05393 | 3023 ft | 231 kts | 75° |
| 2026-04-18 07:15 | -33.79897 | 151.07239 | 3015 ft | 232 kts | 77° |
| 2026-04-18 07:15 | -33.79435 | 151.09124 | 3012 ft | 232 kts | 78° |
| 2026-04-18 07:16 | -33.78972 | 151.10980 | 3013 ft | 232 kts | 77° |
| 2026-04-18 07:16 | -33.78520 | 151.12821 | 3011 ft | 233 kts | 78° |
| 2026-04-18 07:16 | -33.78056 | 151.14708 | 3013 ft | 231 kts | 78° |
| 2026-04-18 07:16 | -33.77606 | 151.16541 | 3011 ft | 233 kts | 78° |
| 2026-04-18 07:17 | -33.77140 | 151.18403 | 3012 ft | 232 kts | 77° |
| 2026-04-18 07:17 | -33.76686 | 151.20263 | 3012 ft | 232 kts | 78° |
| 2026-04-18 07:17 | -33.76229 | 151.22120 | 3011 ft | 232 kts | 78° |
| 2026-04-18 07:17 | -33.75766 | 151.23976 | 3012 ft | 231 kts | 78° |
| 2026-04-18 07:18 | -33.75309 | 151.25828 | 3011 ft | 231 kts | 77° |
| 2026-04-18 07:18 | -33.74854 | 151.27667 | 3014 ft | 232 kts | 78° |
| 2026-04-18 07:18 | -33.74387 | 151.29525 | 3012 ft | 231 kts | 78° |
| 2026-04-18 07:18 | -33.74076 | 151.31390 | 3006 ft | 225 kts | 97° |
| 2026-04-18 07:19 | -33.74478 | 151.33131 | 3012 ft | 213 kts | 129° |
| 2026-04-18 07:19 | -33.75564 | 151.34231 | 3018 ft | 203 kts | 157° |
| 2026-04-18 07:19 | -33.76862 | 151.34880 | 3014 ft | 202 kts | 162° |
| 2026-04-18 07:19 | -33.78181 | 151.35483 | 3013 ft | 203 kts | 163° |
| 2026-04-18 07:20 | -33.79496 | 151.36074 | 3009 ft | 202 kts | 163° |
| 2026-04-18 07:20 | -33.80799 | 151.36648 | 3010 ft | 202 kts | 163° |
| 2026-04-18 07:20 | -33.82118 | 151.37236 | 3011 ft | 202 kts | 163° |
| 2026-04-18 07:20 | -33.83448 | 151.37834 | 3008 ft | 201 kts | 163° |
| 2026-04-18 07:21 | -33.84720 | 151.38301 | 2985 ft | 182 kts | 176° |
| 2026-04-18 07:21 | -33.85929 | 151.38100 | 3007 ft | 173 kts | 201° |
| 2026-04-18 07:21 | -33.86920 | 151.37298 | 3012 ft | 174 kts | 219° |
| 2026-04-18 07:21 | -33.87741 | 151.36216 | 3015 ft | 174 kts | 226° |
| 2026-04-18 07:22 | -33.88498 | 151.35081 | 3011 ft | 175 kts | 228° |
| 2026-04-18 07:22 | -33.89214 | 151.33882 | 2965 ft | 176 kts | 231° |
| 2026-04-18 07:22 | -33.89884 | 151.32645 | 2784 ft | 179 kts | 233° |
| 2026-04-18 07:22 | -33.90544 | 151.31362 | 2542 ft | 181 kts | 235° |
| 2026-04-18 07:23 | -33.91125 | 151.30035 | 2227 ft | 180 kts | 239° |
| 2026-04-18 07:23 | -33.91597 | 151.28628 | 1788 ft | 183 kts | 244° |
| 2026-04-18 07:23 | -33.92015 | 151.27194 | 1447 ft | 177 kts | 246° |
| 2026-04-18 07:23 | -33.92321 | 151.25826 | 1174 ft | 158 kts | 248° |
| 2026-04-18 07:24 | -33.92575 | 151.24546 | 971 ft | 156 kts | 251° |
| 2026-04-18 07:24 | -33.92812 | 151.23285 | 749 ft | 157 kts | 250° |
| 2026-04-18 07:24 | -33.93047 | 151.22004 | 540 ft | 160 kts | 249° |
| 2026-04-18 07:24 | -33.93336 | 151.20727 | 407 ft | 156 kts | 245° |
| 2026-04-18 07:25 | -33.93637 | 151.19544 | 218 ft | 157 kts | 248° |
| 2026-04-18 07:25 | -33.93913 | 151.18262 | 58 ft | 156 kts | 246° |
| 2026-04-18 07:25 | -33.94205 | 151.17097 | 25 ft | 129 kts | 252° |
| 2026-04-18 07:25 | -33.94324 | 151.16553 | 21 ft | 22 kts | 275° |
| 2026-04-18 07:26 | -33.94250 | 151.16497 | 23 ft | 12 kts | 22° |
| 2026-04-18 07:26 | -33.94217 | 151.16565 | 23 ft | 0 kts | 79° |
| 2026-04-18 07:26 | -33.94216 | 151.16571 | 23 ft | 2 kts | 79° |
| 2026-04-18 07:26 | -33.94210 | 151.16604 | 22 ft | 6 kts | 77° |
| 2026-04-18 07:27 | -33.94202 | 151.16641 | 22 ft | 0 kts | 75° |
| 2026-04-18 07:27 | -33.94198 | 151.16657 | 24 ft | 5 kts | 75° |
| 2026-04-18 07:28 | -33.94185 | 151.16715 | 22 ft | 9 kts | 74° |
| 2026-04-18 07:28 | -33.94168 | 151.16786 | 23 ft | 10 kts | 74° |
| 2026-04-18 07:28 | -33.94148 | 151.16869 | 23 ft | 12 kts | 73° |
| 2026-04-18 07:28 | -33.94123 | 151.16974 | 23 ft | 14 kts | 74° |
| 2026-04-18 07:29 | -33.94096 | 151.17088 | 21 ft | 11 kts | 73° |
| 2026-04-18 07:29 | -33.94071 | 151.17186 | 22 ft | 13 kts | 69° |
| 2026-04-18 07:29 | -33.93996 | 151.17248 | 20 ft | 15 kts | 20° |
| 2026-04-18 07:29 | -33.93942 | 151.17358 | 18 ft | 18 kts | 74° |
| 2026-04-18 07:30 | -33.93911 | 151.17491 | 19 ft | 19 kts | 74° |
| 2026-04-18 07:30 | -33.93850 | 151.17595 | 19 ft | 13 kts | 1° |
| 2026-04-18 07:30 | -33.93755 | 151.17575 | 18 ft | 15 kts | 346° |
| 2026-04-18 07:30 | -33.93661 | 151.17607 | 24 ft | 12 kts | 57° |
| 2026-04-18 07:31 | -33.93654 | 151.17657 | 30 ft | 4 kts | 94° |
| 2026-04-18 07:31 | -33.93659 | 151.17695 | 30 ft | 5 kts | 99° |
| 2026-04-18 07:31 | -33.93666 | 151.17745 | 30 ft | 7 kts | 99° |
| 2026-04-18 07:31 | -33.93659 | 151.17802 | 31 ft | 8 kts | 53° |
| 2026-04-18 07:32 | -33.93599 | 151.17823 | 31 ft | 10 kts | 9° |
| 2026-04-18 07:32 | -33.93525 | 151.17839 | 31 ft | 12 kts | 9° |
| 2026-04-18 07:32 | -33.93473 | 151.17857 | 31 ft | 5 kts | 45° |
| 2026-04-18 07:32 | -33.93471 | 151.17891 | 31 ft | 5 kts | 95° |
| 2026-04-18 07:33 | -33.93473 | 151.17907 | 31 ft | 0 kts | 98° |